sensor_id;sensor_type;location;lat;lon;timestamp;P1;durP1;ratioP1;P2;durP2;ratioP2
36353;SDS011;22383;51.114;13.666;2022-09-12T00:01:49;3.45;;;2.00;;
36353;SDS011;22383;51.114;13.666;2022-09-12T00:04:26;1.40;;;1.27;;
36353;SDS011;22383;51.114;13.666;2022-09-12T00:06:58;6.47;;;2.92;;
36353;SDS011;22383;51.114;13.666;2022-09-12T00:09:29;3.05;;;2.75;;
36353;SDS011;22383;51.114;13.666;2022-09-12T00:12:05;1.55;;;1.45;;
36353;SDS011;22383;51.114;13.666;2022-09-12T00:14:52;2.10;;;2.00;;
36353;SDS011;22383;51.114;13.666;2022-09-12T00:17:25;9.18;;;2.67;;
36353;SDS011;22383;51.114;13.666;2022-09-12T00:19:56;4.68;;;2.53;;
36353;SDS011;22383;51.114;13.666;2022-09-12T00:22:29;6.53;;;2.67;;
36353;SDS011;22383;51.114;13.666;2022-09-12T00:25:11;6.30;;;2.20;;
36353;SDS011;22383;51.114;13.666;2022-09-12T00:27:47;6.90;;;2.25;;
36353;SDS011;22383;51.114;13.666;2022-09-12T00:30:27;3.70;;;3.13;;
36353;SDS011;22383;51.114;13.666;2022-09-12T00:33:04;1.67;;;1.58;;
36353;SDS011;22383;51.114;13.666;2022-09-12T00:35:44;6.32;;;1.73;;
36353;SDS011;22383;51.114;13.666;2022-09-12T00:38:22;4.25;;;2.78;;
36353;SDS011;22383;51.114;13.666;2022-09-12T00:41:02;2.15;;;2.00;;
36353;SDS011;22383;51.114;13.666;2022-09-12T00:43:41;2.70;;;2.15;;
36353;SDS011;22383;51.114;13.666;2022-09-12T00:50:14;2.85;;;2.58;;
36353;SDS011;22383;51.114;13.666;2022-09-12T00:52:43;6.55;;;2.38;;
36353;SDS011;22383;51.114;13.666;2022-09-12T00:55:39;5.47;;;3.25;;
36353;SDS011;22383;51.114;13.666;2022-09-12T00:58:34;5.88;;;3.50;;
36353;SDS011;22383;51.114;13.666;2022-09-12T01:01:20;8.00;;;2.20;;
36353;SDS011;22383;51.114;13.666;2022-09-12T01:04:14;6.63;;;4.33;;
36353;SDS011;22383;51.114;13.666;2022-09-12T01:06:58;5.65;;;2.15;;
36353;SDS011;22383;51.114;13.666;2022-09-12T01:10:06;3.90;;;2.20;;
36353;SDS011;22383;51.114;13.666;2022-09-12T01:12:52;7.28;;;2.90;;
36353;SDS011;22383;51.114;13.666;2022-09-12T01:15:38;4.63;;;3.53;;
36353;SDS011;22383;51.114;13.666;2022-09-12T01:21:31;8.00;;;2.85;;
36353;SDS011;22383;51.114;13.666;2022-09-12T01:43:49;8.68;;;3.83;;
36353;SDS011;22383;51.114;13.666;2022-09-12T01:49:09;2.33;;;2.05;;
36353;SDS011;22383;51.114;13.666;2022-09-12T01:51:41;4.22;;;2.55;;
36353;SDS011;22383;51.114;13.666;2022-09-12T01:54:53;4.03;;;3.00;;
36353;SDS011;22383;51.114;13.666;2022-09-12T02:04:09;4.45;;;2.80;;
36353;SDS011;22383;51.114;13.666;2022-09-12T02:07:01;2.97;;;1.60;;
36353;SDS011;22383;51.114;13.666;2022-09-12T02:09:55;6.30;;;2.75;;
36353;SDS011;22383;51.114;13.666;2022-09-12T02:13:41;6.78;;;3.10;;
36353;SDS011;22383;51.114;13.666;2022-09-12T02:16:22;5.15;;;2.75;;
36353;SDS011;22383;51.114;13.666;2022-09-12T02:19:29;2.75;;;1.98;;
36353;SDS011;22383;51.114;13.666;2022-09-12T02:22:07;1.95;;;1.85;;
36353;SDS011;22383;51.114;13.666;2022-09-12T02:24:58;3.78;;;2.63;;
36353;SDS011;22383;51.114;13.666;2022-09-12T02:27:41;5.10;;;3.22;;
36353;SDS011;22383;51.114;13.666;2022-09-12T02:31:11;2.63;;;2.20;;
36353;SDS011;22383;51.114;13.666;2022-09-12T02:40:44;2.22;;;2.05;;
36353;SDS011;22383;51.114;13.666;2022-09-12T02:43:14;3.40;;;2.78;;
36353;SDS011;22383;51.114;13.666;2022-09-12T02:45:41;17.50;;;3.10;;
36353;SDS011;22383;51.114;13.666;2022-09-12T02:50:39;9.52;;;3.08;;
36353;SDS011;22383;51.114;13.666;2022-09-12T02:53:08;4.35;;;2.33;;
36353;SDS011;22383;51.114;13.666;2022-09-12T02:55:36;3.88;;;3.05;;
36353;SDS011;22383;51.114;13.666;2022-09-12T02:58:07;13.55;;;2.63;;
36353;SDS011;22383;51.114;13.666;2022-09-12T03:06:49;5.03;;;3.03;;
36353;SDS011;22383;51.114;13.666;2022-09-12T03:09:19;4.18;;;3.22;;
36353;SDS011;22383;51.114;13.666;2022-09-12T03:18:11;8.05;;;2.63;;
36353;SDS011;22383;51.114;13.666;2022-09-12T03:21:44;3.08;;;2.80;;
36353;SDS011;22383;51.114;13.666;2022-09-12T03:26:31;4.30;;;3.38;;
36353;SDS011;22383;51.114;13.666;2022-09-12T03:29:05;9.20;;;3.13;;
36353;SDS011;22383;51.114;13.666;2022-09-12T03:31:34;7.30;;;3.30;;
36353;SDS011;22383;51.114;13.666;2022-09-12T03:34:01;3.42;;;2.15;;
36353;SDS011;22383;51.114;13.666;2022-09-12T03:36:29;5.25;;;3.55;;
36353;SDS011;22383;51.114;13.666;2022-09-12T03:38:56;9.18;;;4.63;;
36353;SDS011;22383;51.114;13.666;2022-09-12T03:41:24;3.95;;;3.03;;
36353;SDS011;22383;51.114;13.666;2022-09-12T03:43:51;9.02;;;4.93;;
36353;SDS011;22383;51.114;13.666;2022-09-12T03:46:19;2.53;;;2.33;;
36353;SDS011;22383;51.114;13.666;2022-09-12T03:48:46;6.78;;;3.65;;
36353;SDS011;22383;51.114;13.666;2022-09-12T03:51:13;6.28;;;3.58;;
36353;SDS011;22383;51.114;13.666;2022-09-12T03:53:40;2.50;;;2.17;;
36353;SDS011;22383;51.114;13.666;2022-09-12T03:56:09;3.40;;;3.10;;
36353;SDS011;22383;51.114;13.666;2022-09-12T03:58:37;6.53;;;4.68;;
36353;SDS011;22383;51.114;13.666;2022-09-12T04:01:08;9.68;;;5.22;;
36353;SDS011;22383;51.114;13.666;2022-09-12T04:03:42;8.10;;;3.85;;
36353;SDS011;22383;51.114;13.666;2022-09-12T04:06:11;16.13;;;3.63;;
36353;SDS011;22383;51.114;13.666;2022-09-12T04:08:41;3.88;;;3.58;;
36353;SDS011;22383;51.114;13.666;2022-09-12T04:11:11;5.95;;;3.70;;
36353;SDS011;22383;51.114;13.666;2022-09-12T04:13:40;6.68;;;3.45;;
36353;SDS011;22383;51.114;13.666;2022-09-12T04:16:09;7.53;;;3.13;;
36353;SDS011;22383;51.114;13.666;2022-09-12T04:18:38;2.33;;;2.13;;
36353;SDS011;22383;51.114;13.666;2022-09-12T04:21:07;7.93;;;4.25;;
36353;SDS011;22383;51.114;13.666;2022-09-12T04:23:36;8.77;;;4.28;;
36353;SDS011;22383;51.114;13.666;2022-09-12T04:28:32;6.15;;;2.92;;
36353;SDS011;22383;51.114;13.666;2022-09-12T04:31:01;26.27;;;4.22;;
36353;SDS011;22383;51.114;13.666;2022-09-12T04:33:30;11.98;;;2.92;;
36353;SDS011;22383;51.114;13.666;2022-09-12T04:36:04;4.85;;;2.95;;
36353;SDS011;22383;51.114;13.666;2022-09-12T04:38:37;11.05;;;3.63;;
36353;SDS011;22383;51.114;13.666;2022-09-12T04:41:09;6.78;;;4.32;;
36353;SDS011;22383;51.114;13.666;2022-09-12T04:43:40;4.65;;;4.25;;
36353;SDS011;22383;51.114;13.666;2022-09-12T04:46:09;4.32;;;2.92;;
36353;SDS011;22383;51.114;13.666;2022-09-12T04:48:37;5.18;;;3.78;;
36353;SDS011;22383;51.114;13.666;2022-09-12T04:51:16;5.63;;;3.38;;
36353;SDS011;22383;51.114;13.666;2022-09-12T04:53:49;4.68;;;3.72;;
36353;SDS011;22383;51.114;13.666;2022-09-12T04:56:18;6.03;;;3.20;;
36353;SDS011;22383;51.114;13.666;2022-09-12T04:58:46;5.78;;;4.20;;
36353;SDS011;22383;51.114;13.666;2022-09-12T05:03:42;3.22;;;2.92;;
36353;SDS011;22383;51.114;13.666;2022-09-12T05:06:18;4.15;;;3.55;;
36353;SDS011;22383;51.114;13.666;2022-09-12T05:08:48;8.60;;;2.77;;
36353;SDS011;22383;51.114;13.666;2022-09-12T05:11:16;4.68;;;3.22;;
36353;SDS011;22383;51.114;13.666;2022-09-12T05:13:51;3.53;;;2.63;;
36353;SDS011;22383;51.114;13.666;2022-09-12T05:16:20;15.05;;;3.97;;
36353;SDS011;22383;51.114;13.666;2022-09-12T05:18:48;15.27;;;3.38;;
36353;SDS011;22383;51.114;13.666;2022-09-12T05:21:17;4.28;;;3.25;;
36353;SDS011;22383;51.114;13.666;2022-09-12T05:23:49;8.57;;;3.30;;
36353;SDS011;22383;51.114;13.666;2022-09-12T05:26:21;11.75;;;2.85;;
36353;SDS011;22383;51.114;13.666;2022-09-12T05:28:51;4.13;;;3.28;;
36353;SDS011;22383;51.114;13.666;2022-09-12T05:31:21;5.22;;;3.05;;
36353;SDS011;22383;51.114;13.666;2022-09-12T05:33:51;5.63;;;3.33;;
36353;SDS011;22383;51.114;13.666;2022-09-12T05:36:26;8.10;;;4.93;;
36353;SDS011;22383;51.114;13.666;2022-09-12T05:38:55;4.25;;;3.30;;
36353;SDS011;22383;51.114;13.666;2022-09-12T05:41:27;4.78;;;4.10;;
36353;SDS011;22383;51.114;13.666;2022-09-12T05:44:00;8.60;;;3.72;;
36353;SDS011;22383;51.114;13.666;2022-09-12T05:46:42;5.00;;;3.67;;
36353;SDS011;22383;51.114;13.666;2022-09-12T05:49:12;6.50;;;3.33;;
36353;SDS011;22383;51.114;13.666;2022-09-12T05:51:41;11.20;;;3.58;;
36353;SDS011;22383;51.114;13.666;2022-09-12T05:54:19;9.80;;;3.67;;
36353;SDS011;22383;51.114;13.666;2022-09-12T05:56:53;2.95;;;2.65;;
36353;SDS011;22383;51.114;13.666;2022-09-12T05:59:22;9.35;;;3.80;;
36353;SDS011;22383;51.114;13.666;2022-09-12T06:01:50;7.38;;;3.63;;
36353;SDS011;22383;51.114;13.666;2022-09-12T06:04:20;6.30;;;2.92;;
36353;SDS011;22383;51.114;13.666;2022-09-12T06:06:47;2.03;;;1.48;;
36353;SDS011;22383;51.114;13.666;2022-09-12T06:09:16;7.32;;;4.57;;
36353;SDS011;22383;51.114;13.666;2022-09-12T06:11:44;7.32;;;3.47;;
36353;SDS011;22383;51.114;13.666;2022-09-12T06:14:15;10.60;;;3.20;;
36353;SDS011;22383;51.114;13.666;2022-09-12T06:16:47;6.35;;;4.25;;
36353;SDS011;22383;51.114;13.666;2022-09-12T06:19:24;17.85;;;4.18;;
36353;SDS011;22383;51.114;13.666;2022-09-12T06:21:54;6.65;;;4.07;;
36353;SDS011;22383;51.114;13.666;2022-09-12T06:24:23;11.52;;;4.85;;
36353;SDS011;22383;51.114;13.666;2022-09-12T06:26:52;11.38;;;4.80;;
36353;SDS011;22383;51.114;13.666;2022-09-12T06:29:24;2.80;;;2.40;;
36353;SDS011;22383;51.114;13.666;2022-09-12T06:31:52;7.65;;;3.95;;
36353;SDS011;22383;51.114;13.666;2022-09-12T06:34:20;7.43;;;4.15;;
36353;SDS011;22383;51.114;13.666;2022-09-12T06:36:48;11.43;;;3.75;;
36353;SDS011;22383;51.114;13.666;2022-09-12T06:39:21;8.55;;;4.10;;
36353;SDS011;22383;51.114;13.666;2022-09-12T06:41:51;11.95;;;4.20;;
36353;SDS011;22383;51.114;13.666;2022-09-12T06:44:32;6.72;;;3.58;;
36353;SDS011;22383;51.114;13.666;2022-09-12T06:49:28;11.57;;;4.22;;
36353;SDS011;22383;51.114;13.666;2022-09-12T06:51:58;9.10;;;4.45;;
36353;SDS011;22383;51.114;13.666;2022-09-12T06:54:26;9.00;;;4.57;;
36353;SDS011;22383;51.114;13.666;2022-09-12T06:59:21;5.95;;;4.82;;
36353;SDS011;22383;51.114;13.666;2022-09-12T07:01:55;4.20;;;3.22;;
36353;SDS011;22383;51.114;13.666;2022-09-12T07:04:25;4.82;;;3.50;;
36353;SDS011;22383;51.114;13.666;2022-09-12T07:06:54;2.53;;;2.13;;
36353;SDS011;22383;51.114;13.666;2022-09-12T07:09:22;13.52;;;4.95;;
36353;SDS011;22383;51.114;13.666;2022-09-12T07:11:51;5.35;;;2.85;;
36353;SDS011;22383;51.114;13.666;2022-09-12T07:14:20;10.60;;;4.93;;
36353;SDS011;22383;51.114;13.666;2022-09-12T07:16:48;5.60;;;3.22;;
36353;SDS011;22383;51.114;13.666;2022-09-12T07:19:16;4.25;;;2.97;;
36353;SDS011;22383;51.114;13.666;2022-09-12T07:24:12;6.28;;;4.18;;
36353;SDS011;22383;51.114;13.666;2022-09-12T07:26:40;9.50;;;3.70;;
36353;SDS011;22383;51.114;13.666;2022-09-12T07:29:12;3.65;;;3.20;;
36353;SDS011;22383;51.114;13.666;2022-09-12T07:32:02;5.35;;;3.90;;
36353;SDS011;22383;51.114;13.666;2022-09-12T07:34:32;11.27;;;2.15;;
36353;SDS011;22383;51.114;13.666;2022-09-12T07:37:01;11.00;;;3.25;;
36353;SDS011;22383;51.114;13.666;2022-09-12T07:39:30;18.67;;;3.40;;
36353;SDS011;22383;51.114;13.666;2022-09-12T07:41:58;3.50;;;2.42;;
36353;SDS011;22383;51.114;13.666;2022-09-12T07:44:27;3.75;;;3.45;;
36353;SDS011;22383;51.114;13.666;2022-09-12T07:46:55;14.25;;;5.18;;
36353;SDS011;22383;51.114;13.666;2022-09-12T07:49:23;5.30;;;2.47;;
36353;SDS011;22383;51.114;13.666;2022-09-12T07:51:52;3.70;;;2.75;;
36353;SDS011;22383;51.114;13.666;2022-09-12T07:54:20;6.53;;;3.50;;
36353;SDS011;22383;51.114;13.666;2022-09-12T07:56:49;7.15;;;3.53;;
36353;SDS011;22383;51.114;13.666;2022-09-12T07:59:17;9.02;;;4.20;;
36353;SDS011;22383;51.114;13.666;2022-09-12T08:02:08;5.10;;;3.80;;
36353;SDS011;22383;51.114;13.666;2022-09-12T08:04:45;6.15;;;3.72;;
36353;SDS011;22383;51.114;13.666;2022-09-12T08:07:16;2.25;;;1.80;;
36353;SDS011;22383;51.114;13.666;2022-09-12T08:09:45;4.15;;;3.08;;
36353;SDS011;22383;51.114;13.666;2022-09-12T08:12:14;4.53;;;2.55;;
36353;SDS011;22383;51.114;13.666;2022-09-12T08:14:43;1.63;;;1.52;;
36353;SDS011;22383;51.114;13.666;2022-09-12T08:17:10;8.02;;;2.47;;
36353;SDS011;22383;51.114;13.666;2022-09-12T08:19:39;4.07;;;1.75;;
36353;SDS011;22383;51.114;13.666;2022-09-12T08:22:07;3.17;;;2.88;;
36353;SDS011;22383;51.114;13.666;2022-09-12T08:27:03;4.00;;;2.78;;
36353;SDS011;22383;51.114;13.666;2022-09-12T08:29:34;2.70;;;1.55;;
36353;SDS011;22383;51.114;13.666;2022-09-12T08:32:04;2.40;;;1.95;;
36353;SDS011;22383;51.114;13.666;2022-09-12T08:34:32;4.85;;;2.08;;
36353;SDS011;22383;51.114;13.666;2022-09-12T08:37:01;2.92;;;1.77;;
36353;SDS011;22383;51.114;13.666;2022-09-12T08:39:30;4.38;;;1.27;;
36353;SDS011;22383;51.114;13.666;2022-09-12T08:42:04;2.85;;;1.33;;
36353;SDS011;22383;51.114;13.666;2022-09-12T08:52:43;5.38;;;2.05;;
36353;SDS011;22383;51.114;13.666;2022-09-12T08:55:39;0.90;;;0.90;;
36353;SDS011;22383;51.114;13.666;2022-09-12T08:58:20;4.25;;;1.73;;
36353;SDS011;22383;51.114;13.666;2022-09-12T09:00:57;6.88;;;2.13;;
36353;SDS011;22383;51.114;13.666;2022-09-12T09:18:30;5.05;;;2.55;;
36353;SDS011;22383;51.114;13.666;2022-09-12T09:21:02;3.20;;;0.85;;
36353;SDS011;22383;51.114;13.666;2022-09-12T09:23:52;2.25;;;1.58;;
36353;SDS011;22383;51.114;13.666;2022-09-12T09:26:48;2.40;;;1.77;;
36353;SDS011;22383;51.114;13.666;2022-09-12T09:30:19;1.48;;;1.08;;
36353;SDS011;22383;51.114;13.666;2022-09-12T09:32:59;9.60;;;1.42;;
36353;SDS011;22383;51.114;13.666;2022-09-12T09:44:17;4.28;;;1.63;;
36353;SDS011;22383;51.114;13.666;2022-09-12T09:46:46;2.05;;;0.95;;
36353;SDS011;22383;51.114;13.666;2022-09-12T09:49:21;0.80;;;0.80;;
36353;SDS011;22383;51.114;13.666;2022-09-12T09:51:53;1.15;;;1.05;;
36353;SDS011;22383;51.114;13.666;2022-09-12T09:54:43;3.10;;;2.22;;
36353;SDS011;22383;51.114;13.666;2022-09-12T10:05:46;0.73;;;0.52;;
36353;SDS011;22383;51.114;13.666;2022-09-12T10:08:34;7.68;;;1.58;;
36353;SDS011;22383;51.114;13.666;2022-09-12T10:11:20;1.77;;;0.30;;
36353;SDS011;22383;51.114;13.666;2022-09-12T10:13:58;0.60;;;0.60;;
36353;SDS011;22383;51.114;13.666;2022-09-12T10:16:31;0.88;;;0.88;;
36353;SDS011;22383;51.114;13.666;2022-09-12T10:19:34;0.30;;;0.25;;
36353;SDS011;22383;51.114;13.666;2022-09-12T10:22:05;0.68;;;0.68;;
36353;SDS011;22383;51.114;13.666;2022-09-12T10:24:46;0.90;;;0.43;;
36353;SDS011;22383;51.114;13.666;2022-09-12T10:27:22;1.13;;;0.68;;
36353;SDS011;22383;51.114;13.666;2022-09-12T10:30:02;1.75;;;0.98;;
36353;SDS011;22383;51.114;13.666;2022-09-12T10:32:45;1.00;;;0.65;;
36353;SDS011;22383;51.114;13.666;2022-09-12T10:37:57;1.85;;;0.55;;
36353;SDS011;22383;51.114;13.666;2022-09-12T10:40:54;0.68;;;0.60;;
36353;SDS011;22383;51.114;13.666;2022-09-12T10:43:39;0.80;;;0.63;;
36353;SDS011;22383;51.114;13.666;2022-09-12T10:48:50;1.35;;;0.57;;
36353;SDS011;22383;51.114;13.666;2022-09-12T10:51:44;0.45;;;0.45;;
36353;SDS011;22383;51.114;13.666;2022-09-12T10:54:26;0.30;;;0.30;;
36353;SDS011;22383;51.114;13.666;2022-09-12T10:59:49;2.65;;;0.63;;
36353;SDS011;22383;51.114;13.666;2022-09-12T11:10:22;0.20;;;0.20;;
36353;SDS011;22383;51.114;13.666;2022-09-12T11:24:34;3.00;;;0.20;;
36353;SDS011;22383;51.114;13.666;2022-09-12T11:27:24;0.38;;;0.32;;
36353;SDS011;22383;51.114;13.666;2022-09-12T11:30:00;1.63;;;0.40;;
36353;SDS011;22383;51.114;13.666;2022-09-12T11:32:46;0.20;;;0.20;;
36353;SDS011;22383;51.114;13.666;2022-09-12T11:35:37;0.30;;;0.30;;
36353;SDS011;22383;51.114;13.666;2022-09-12T11:40:53;0.70;;;0.17;;
36353;SDS011;22383;51.114;13.666;2022-09-12T11:43:31;0.52;;;0.52;;
36353;SDS011;22383;51.114;13.666;2022-09-12T11:49:34;0.57;;;0.57;;
36353;SDS011;22383;51.114;13.666;2022-09-12T11:52:10;0.32;;;0.32;;
36353;SDS011;22383;51.114;13.666;2022-09-12T12:08:28;0.50;;;0.28;;
36353;SDS011;22383;51.114;13.666;2022-09-12T12:10:59;0.47;;;0.38;;
36353;SDS011;22383;51.114;13.666;2022-09-12T12:16:11;0.32;;;0.32;;
36353;SDS011;22383;51.114;13.666;2022-09-12T12:18:43;0.15;;;0.15;;
36353;SDS011;22383;51.114;13.666;2022-09-12T12:21:33;0.60;;;0.60;;
36353;SDS011;22383;51.114;13.666;2022-09-12T12:34:31;0.52;;;0.50;;
36353;SDS011;22383;51.114;13.666;2022-09-12T12:39:55;0.38;;;0.38;;
36353;SDS011;22383;51.114;13.666;2022-09-12T12:47:50;0.30;;;0.30;;
36353;SDS011;22383;51.114;13.666;2022-09-12T12:50:28;2.70;;;0.20;;
36353;SDS011;22383;51.114;13.666;2022-09-12T12:54:00;0.50;;;0.30;;
36353;SDS011;22383;51.114;13.666;2022-09-12T12:59:21;0.10;;;0.10;;
36353;SDS011;22383;51.114;13.666;2022-09-12T13:01:54;1.38;;;0.55;;
36353;SDS011;22383;51.114;13.666;2022-09-12T13:04:28;0.50;;;0.50;;
36353;SDS011;22383;51.114;13.666;2022-09-12T13:07:06;0.45;;;0.43;;
36353;SDS011;22383;51.114;13.666;2022-09-12T13:09:43;0.55;;;0.52;;
36353;SDS011;22383;51.114;13.666;2022-09-12T13:12:19;0.30;;;0.30;;
36353;SDS011;22383;51.114;13.666;2022-09-12T13:15:00;0.20;;;0.20;;
36353;SDS011;22383;51.114;13.666;2022-09-12T13:17:39;0.52;;;0.50;;
36353;SDS011;22383;51.114;13.666;2022-09-12T13:20:26;0.40;;;0.40;;
36353;SDS011;22383;51.114;13.666;2022-09-12T13:23:18;0.30;;;0.30;;
36353;SDS011;22383;51.114;13.666;2022-09-12T13:25:53;0.20;;;0.20;;
36353;SDS011;22383;51.114;13.666;2022-09-12T13:28:26;2.72;;;1.42;;
36353;SDS011;22383;51.114;13.666;2022-09-12T13:31:05;3.40;;;0.88;;
36353;SDS011;22383;51.114;13.666;2022-09-12T13:36:27;1.63;;;0.93;;
36353;SDS011;22383;51.114;13.666;2022-09-12T13:43:11;0.15;;;0.15;;
36353;SDS011;22383;51.114;13.666;2022-09-12T13:45:42;0.20;;;0.20;;
36353;SDS011;22383;51.114;13.666;2022-09-12T13:48:21;0.30;;;0.30;;
36353;SDS011;22383;51.114;13.666;2022-09-12T13:50:59;0.10;;;0.10;;
36353;SDS011;22383;51.114;13.666;2022-09-12T13:53:31;0.88;;;0.47;;
36353;SDS011;22383;51.114;13.666;2022-09-12T13:56:14;0.10;;;0.10;;
36353;SDS011;22383;51.114;13.666;2022-09-12T14:01:44;0.28;;;0.28;;
36353;SDS011;22383;51.114;13.666;2022-09-12T14:07:00;0.10;;;0.10;;
36353;SDS011;22383;51.114;13.666;2022-09-12T14:09:37;0.57;;;0.47;;
36353;SDS011;22383;51.114;13.666;2022-09-12T14:12:53;0.63;;;0.52;;
36353;SDS011;22383;51.114;13.666;2022-09-12T14:15:04;0.10;;;0.10;;
36353;SDS011;22383;51.114;13.666;2022-09-12T14:17:37;0.65;;;0.65;;
36353;SDS011;22383;51.114;13.666;2022-09-12T14:20:13;0.38;;;0.38;;
36353;SDS011;22383;51.114;13.666;2022-09-12T14:22:46;0.47;;;0.47;;
36353;SDS011;22383;51.114;13.666;2022-09-12T14:25:19;0.25;;;0.25;;
36353;SDS011;22383;51.114;13.666;2022-09-12T14:27:52;0.28;;;0.28;;
36353;SDS011;22383;51.114;13.666;2022-09-12T14:30:30;1.13;;;0.50;;
36353;SDS011;22383;51.114;13.666;2022-09-12T14:35:38;0.95;;;0.63;;
36353;SDS011;22383;51.114;13.666;2022-09-12T14:40:45;0.15;;;0.15;;
36353;SDS011;22383;51.114;13.666;2022-09-12T14:43:28;0.50;;;0.50;;
36353;SDS011;22383;51.114;13.666;2022-09-12T14:46:05;0.25;;;0.25;;
36353;SDS011;22383;51.114;13.666;2022-09-12T14:48:50;1.60;;;0.70;;
36353;SDS011;22383;51.114;13.666;2022-09-12T14:51:26;1.90;;;0.32;;
36353;SDS011;22383;51.114;13.666;2022-09-12T14:53:55;0.43;;;0.43;;
36353;SDS011;22383;51.114;13.666;2022-09-12T14:56:51;0.10;;;0.10;;
36353;SDS011;22383;51.114;13.666;2022-09-12T14:59:35;0.13;;;0.13;;
36353;SDS011;22383;51.114;13.666;2022-09-12T15:07:35;0.20;;;0.20;;
36353;SDS011;22383;51.114;13.666;2022-09-12T15:10:15;1.35;;;0.73;;
36353;SDS011;22383;51.114;13.666;2022-09-12T15:15:43;0.22;;;0.22;;
36353;SDS011;22383;51.114;13.666;2022-09-12T15:18:23;0.20;;;0.20;;
36353;SDS011;22383;51.114;13.666;2022-09-12T15:20:55;0.32;;;0.28;;
36353;SDS011;22383;51.114;13.666;2022-09-12T15:23:32;0.20;;;0.20;;
36353;SDS011;22383;51.114;13.666;2022-09-12T15:26:09;0.17;;;0.17;;
36353;SDS011;22383;51.114;13.666;2022-09-12T15:28:38;0.40;;;0.40;;
36353;SDS011;22383;51.114;13.666;2022-09-12T15:31:13;0.45;;;0.45;;
36353;SDS011;22383;51.114;13.666;2022-09-12T15:33:42;0.10;;;0.10;;
36353;SDS011;22383;51.114;13.666;2022-09-12T15:36:12;5.15;;;1.27;;
36353;SDS011;22383;51.114;13.666;2022-09-12T15:38:43;1.30;;;0.55;;
36353;SDS011;22383;51.114;13.666;2022-09-12T15:41:20;0.25;;;0.25;;
36353;SDS011;22383;51.114;13.666;2022-09-12T15:43:49;0.20;;;0.20;;
36353;SDS011;22383;51.114;13.666;2022-09-12T15:46:18;0.38;;;0.28;;
36353;SDS011;22383;51.114;13.666;2022-09-12T15:48:47;0.30;;;0.30;;
36353;SDS011;22383;51.114;13.666;2022-09-12T15:54:12;0.32;;;0.32;;
36353;SDS011;22383;51.114;13.666;2022-09-12T15:56:45;0.10;;;0.10;;
36353;SDS011;22383;51.114;13.666;2022-09-12T15:59:17;0.30;;;0.30;;
36353;SDS011;22383;51.114;13.666;2022-09-12T16:01:45;0.50;;;0.50;;
36353;SDS011;22383;51.114;13.666;2022-09-12T16:04:19;0.47;;;0.47;;
36353;SDS011;22383;51.114;13.666;2022-09-12T16:06:49;2.60;;;0.30;;
36353;SDS011;22383;51.114;13.666;2022-09-12T16:09:29;0.90;;;0.50;;
36353;SDS011;22383;51.114;13.666;2022-09-12T16:12:01;0.90;;;0.85;;
36353;SDS011;22383;51.114;13.666;2022-09-12T16:14:36;2.70;;;1.98;;
36353;SDS011;22383;51.114;13.666;2022-09-12T16:17:11;0.30;;;0.30;;
36353;SDS011;22383;51.114;13.666;2022-09-12T16:19:50;0.93;;;0.32;;
36353;SDS011;22383;51.114;13.666;2022-09-12T16:25:33;0.30;;;0.30;;
36353;SDS011;22383;51.114;13.666;2022-09-12T16:28:00;0.30;;;0.30;;
36353;SDS011;22383;51.114;13.666;2022-09-12T16:30:30;0.20;;;0.20;;
36353;SDS011;22383;51.114;13.666;2022-09-12T16:33:01;2.22;;;0.45;;
36353;SDS011;22383;51.114;13.666;2022-09-12T16:35:29;0.63;;;0.45;;
36353;SDS011;22383;51.114;13.666;2022-09-12T16:37:57;0.20;;;0.20;;
36353;SDS011;22383;51.114;13.666;2022-09-12T16:40:24;0.20;;;0.20;;
36353;SDS011;22383;51.114;13.666;2022-09-12T16:42:51;0.30;;;0.30;;
36353;SDS011;22383;51.114;13.666;2022-09-12T16:45:19;0.40;;;0.40;;
36353;SDS011;22383;51.114;13.666;2022-09-12T16:47:46;0.38;;;0.38;;
36353;SDS011;22383;51.114;13.666;2022-09-12T16:50:13;0.28;;;0.28;;
36353;SDS011;22383;51.114;13.666;2022-09-12T16:52:40;1.58;;;0.52;;
36353;SDS011;22383;51.114;13.666;2022-09-12T16:55:07;2.03;;;0.75;;
36353;SDS011;22383;51.114;13.666;2022-09-12T16:57:35;0.85;;;0.60;;
36353;SDS011;22383;51.114;13.666;2022-09-12T17:00:03;0.40;;;0.40;;
36353;SDS011;22383;51.114;13.666;2022-09-12T17:02:31;1.08;;;0.40;;
36353;SDS011;22383;51.114;13.666;2022-09-12T17:04:58;0.60;;;0.55;;
36353;SDS011;22383;51.114;13.666;2022-09-12T17:07:25;1.00;;;0.65;;
36353;SDS011;22383;51.114;13.666;2022-09-12T17:09:52;0.73;;;0.52;;
36353;SDS011;22383;51.114;13.666;2022-09-12T17:12:20;1.00;;;0.90;;
36353;SDS011;22383;51.114;13.666;2022-09-12T17:14:47;1.17;;;0.43;;
36353;SDS011;22383;51.114;13.666;2022-09-12T17:17:14;0.50;;;0.50;;
36353;SDS011;22383;51.114;13.666;2022-09-12T17:19:41;2.72;;;1.17;;
36353;SDS011;22383;51.114;13.666;2022-09-12T17:24:36;0.40;;;0.40;;
36353;SDS011;22383;51.114;13.666;2022-09-12T17:27:04;0.40;;;0.40;;
36353;SDS011;22383;51.114;13.666;2022-09-12T17:29:31;0.20;;;0.20;;
36353;SDS011;22383;51.114;13.666;2022-09-12T17:32:00;0.73;;;0.50;;
36353;SDS011;22383;51.114;13.666;2022-09-12T17:34:28;0.85;;;0.73;;
36353;SDS011;22383;51.114;13.666;2022-09-12T17:36:55;0.20;;;0.20;;
36353;SDS011;22383;51.114;13.666;2022-09-12T17:39:22;0.60;;;0.60;;
36353;SDS011;22383;51.114;13.666;2022-09-12T17:41:49;0.80;;;0.75;;
36353;SDS011;22383;51.114;13.666;2022-09-12T17:44:17;0.70;;;0.50;;
36353;SDS011;22383;51.114;13.666;2022-09-12T17:46:46;0.73;;;0.73;;
36353;SDS011;22383;51.114;13.666;2022-09-12T17:49:16;0.80;;;0.77;;
36353;SDS011;22383;51.114;13.666;2022-09-12T17:51:47;1.05;;;0.77;;
36353;SDS011;22383;51.114;13.666;2022-09-12T17:54:15;2.42;;;0.73;;
36353;SDS011;22383;51.114;13.666;2022-09-12T17:56:45;4.85;;;1.73;;
36353;SDS011;22383;51.114;13.666;2022-09-12T17:59:16;0.43;;;0.28;;
36353;SDS011;22383;51.114;13.666;2022-09-12T18:01:48;1.02;;;0.63;;
36353;SDS011;22383;51.114;13.666;2022-09-12T18:04:34;1.65;;;0.82;;
36353;SDS011;22383;51.114;13.666;2022-09-12T18:07:01;0.45;;;0.45;;
36353;SDS011;22383;51.114;13.666;2022-09-12T18:09:28;0.40;;;0.40;;
36353;SDS011;22383;51.114;13.666;2022-09-12T18:11:58;0.50;;;0.50;;
36353;SDS011;22383;51.114;13.666;2022-09-12T18:16:54;0.70;;;0.70;;
36353;SDS011;22383;51.114;13.666;2022-09-12T18:19:23;1.38;;;0.30;;
36353;SDS011;22383;51.114;13.666;2022-09-12T18:21:50;0.35;;;0.35;;
36353;SDS011;22383;51.114;13.666;2022-09-12T18:24:17;0.38;;;0.38;;
36353;SDS011;22383;51.114;13.666;2022-09-12T18:26:45;0.75;;;0.45;;
36353;SDS011;22383;51.114;13.666;2022-09-12T18:29:12;1.08;;;0.80;;
36353;SDS011;22383;51.114;13.666;2022-09-12T18:31:43;0.28;;;0.28;;
36353;SDS011;22383;51.114;13.666;2022-09-12T18:34:10;0.63;;;0.63;;
36353;SDS011;22383;51.114;13.666;2022-09-12T18:36:40;0.50;;;0.50;;
36353;SDS011;22383;51.114;13.666;2022-09-12T18:39:08;0.68;;;0.68;;
36353;SDS011;22383;51.114;13.666;2022-09-12T18:44:03;1.67;;;0.75;;
36353;SDS011;22383;51.114;13.666;2022-09-12T18:46:32;0.40;;;0.40;;
36353;SDS011;22383;51.114;13.666;2022-09-12T18:49:01;0.32;;;0.32;;
36353;SDS011;22383;51.114;13.666;2022-09-12T18:51:29;0.22;;;0.22;;
36353;SDS011;22383;51.114;13.666;2022-09-12T18:54:04;1.58;;;0.40;;
36353;SDS011;22383;51.114;13.666;2022-09-12T18:56:35;0.30;;;0.30;;
36353;SDS011;22383;51.114;13.666;2022-09-12T18:59:04;0.30;;;0.30;;
36353;SDS011;22383;51.114;13.666;2022-09-12T19:01:34;1.55;;;0.85;;
36353;SDS011;22383;51.114;13.666;2022-09-12T19:04:03;2.22;;;0.85;;